Time;durP1;ratioP1;P1;durP2;ratioP2;P2;SDS_P1;SDS_P2;PMS_P1;PMS_P2;Temp;Humidity;BMP_temperature;BMP_pressure;BME280_temperature;BME280_humidity;BME280_pressure;Samples;Min_cycle;Max_cycle;Signal;HPM_P1;HPM_P2
2021/11/09 00:01:06;;;;;;;1.35;0.50;;;14.90;96.70;;;;;;5103685;28;20629;-84
2021/11/09 00:03:42;;;;;;;3.08;0.70;;;14.90;96.70;;;;;;5103228;27;20056;-86
2021/11/09 00:08:53;;;;;;;1.17;0.60;;;14.90;96.70;;;;;;5100575;27;20059;-85
2021/11/09 00:11:22;;;;;;;1.88;0.63;;;14.90;96.70;;;;;;5103009;27;20059;-86
2021/11/09 00:13:52;;;;;;;1.30;0.60;;;14.90;96.70;;;;;;5082498;28;20040;-85
2021/11/09 00:16:20;;;;;;;1.60;0.50;;;14.90;96.70;;;;;;5099702;28;20036;-86
2021/11/09 00:18:49;;;;;;;2.33;0.52;;;14.80;96.70;;;;;;5094727;28;20040;-85
2021/11/09 00:21:18;;;;;;;1.27;0.55;;;14.80;96.70;;;;;;5097292;28;20036;-86
2021/11/09 00:23:46;;;;;;;1.35;0.70;;;14.80;96.70;;;;;;5117357;27;20095;-86
2021/11/09 00:26:15;;;;;;;2.20;0.60;;;14.90;96.70;;;;;;5081027;28;20191;-86
2021/11/09 00:28:44;;;;;;;4.47;0.77;;;14.90;96.70;;;;;;5084782;28;20035;-85
2021/11/09 00:31:14;;;;;;;0.73;0.45;;;14.80;96.70;;;;;;5094759;28;20121;-85
2021/11/09 00:33:42;;;;;;;2.08;0.45;;;14.80;96.70;;;;;;5075303;28;20050;-85
2021/11/09 00:36:11;;;;;;;1.60;0.50;;;14.90;96.70;;;;;;5094022;28;20062;-86
2021/11/09 00:38:40;;;;;;;2.08;0.60;;;14.80;96.70;;;;;;5101165;28;20075;-85
2021/11/09 00:41:08;;;;;;;1.05;0.63;;;14.90;96.70;;;;;;5083392;28;20043;-85
2021/11/09 00:43:37;;;;;;;2.58;0.63;;;14.90;96.70;;;;;;5101377;28;20054;-86
2021/11/09 00:46:05;;;;;;;1.55;0.70;;;14.80;96.70;;;;;;5085540;28;20054;-86
2021/11/09 00:48:34;;;;;;;2.13;0.65;;;14.80;96.70;;;;;;5098999;28;20492;-86
2021/11/09 00:51:03;;;;;;;1.92;0.80;;;14.80;96.70;;;;;;5101590;27;20039;-86
2021/11/09 00:53:31;;;;;;;2.17;0.52;;;14.80;96.70;;;;;;5100893;27;20081;-85
2021/11/09 00:55:59;;;;;;;1.25;0.57;;;14.80;96.70;;;;;;5095977;27;20050;-85
2021/11/09 00:58:27;;;;;;;1.63;0.77;;;14.70;96.70;;;;;;5104835;28;20036;-86
2021/11/09 01:00:55;;;;;;;1.55;0.50;;;14.70;96.70;;;;;;5079479;28;20789;-86
2021/11/09 01:03:23;;;;;;;1.10;0.68;;;14.70;96.70;;;;;;5097370;27;20042;-86
2021/11/09 01:05:53;;;;;;;1.00;0.60;;;14.70;96.70;;;;;;5098167;28;20208;-87
2021/11/09 01:08:22;;;;;;;2.15;0.70;;;14.70;96.70;;;;;;5095340;28;20153;-84
2021/11/09 01:10:52;;;;;;;1.17;0.60;;;14.70;96.70;;;;;;5096251;28;20044;-83
2021/11/09 01:13:23;;;;;;;1.90;0.70;;;14.70;96.70;;;;;;5096899;28;20073;-83
2021/11/09 01:15:53;;;;;;;1.85;0.77;;;14.70;96.70;;;;;;5081732;28;20058;-84
2021/11/09 01:18:25;;;;;;;1.55;0.60;;;14.70;96.70;;;;;;5099230;28;20040;-84
2021/11/09 01:20:56;;;;;;;1.80;0.63;;;14.70;96.70;;;;;;5100685;28;20035;-83
2021/11/09 01:23:30;;;;;;;3.28;0.80;;;14.70;96.70;;;;;;5094300;28;20039;-84
2021/11/09 01:25:59;;;;;;;2.45;0.50;;;14.70;96.70;;;;;;5097123;28;20454;-83
2021/11/09 01:28:27;;;;;;;1.63;0.63;;;14.70;96.70;;;;;;5084740;28;20051;-83
2021/11/09 01:30:55;;;;;;;1.33;0.80;;;14.70;96.70;;;;;;5096060;28;20059;-83
2021/11/09 01:33:24;;;;;;;2.00;0.85;;;14.70;96.70;;;;;;5096231;28;20192;-86
2021/11/09 01:35:52;;;;;;;2.40;0.80;;;14.70;96.70;;;;;;5099109;28;20112;-86
2021/11/09 01:38:22;;;;;;;2.63;0.60;;;14.70;96.70;;;;;;5098043;28;20061;-86
2021/11/09 01:40:50;;;;;;;3.05;0.98;;;14.70;96.70;;;;;;5094324;27;20043;-86
2021/11/09 01:43:19;;;;;;;2.78;1.00;;;14.70;96.70;;;;;;5096435;28;20537;-86
2021/11/09 01:45:48;;;;;;;2.72;0.90;;;14.80;96.70;;;;;;5102092;28;20114;-86
2021/11/09 01:48:17;;;;;;;2.67;0.70;;;14.80;96.70;;;;;;5099874;27;20335;-86
2021/11/09 01:50:48;;;;;;;3.97;1.20;;;14.80;96.70;;;;;;5095192;27;20051;-92
2021/11/09 01:53:17;;;;;;;1.88;0.93;;;14.80;96.70;;;;;;5082809;28;20488;-91
2021/11/09 01:55:47;;;;;;;3.47;0.82;;;14.80;96.70;;;;;;5100717;28;20068;-89
2021/11/09 01:58:17;;;;;;;1.23;0.80;;;14.80;96.70;;;;;;5094270;28;20137;-90
2021/11/09 02:00:48;;;;;;;1.10;0.63;;;14.80;96.70;;;;;;5100009;28;20404;-90
2021/11/09 02:03:17;;;;;;;1.98;0.77;;;14.80;96.70;;;;;;5083043;28;20048;-86
2021/11/09 02:05:46;;;;;;;1.63;0.77;;;14.80;96.70;;;;;;5103689;28;20571;-91
2021/11/09 02:08:14;;;;;;;3.75;1.10;;;14.80;96.70;;;;;;5096449;28;20039;-88
2021/11/09 02:10:44;;;;;;;1.38;0.60;;;14.80;96.70;;;;;;5091697;28;20497;-88
2021/11/09 02:13:14;;;;;;;2.90;0.77;;;14.80;96.70;;;;;;5097903;28;20036;-88
2021/11/09 02:15:43;;;;;;;1.38;0.90;;;14.80;96.70;;;;;;5084890;28;20057;-88
2021/11/09 02:18:13;;;;;;;1.63;0.93;;;14.70;96.70;;;;;;5093102;28;20048;-88
2021/11/09 02:20:50;;;;;;;1.88;0.80;;;14.70;96.70;;;;;;5084731;28;20132;-88
2021/11/09 02:23:18;;;;;;;;;;;14.70;96.70;;;;;;5100587;28;20043;-88
2021/11/09 02:25:46;;;;;;;3.13;0.90;;;14.70;96.70;;;;;;5104765;28;19927;-88
2021/11/09 02:28:14;;;;;;;2.47;1.23;;;14.60;96.70;;;;;;5093224;28;20035;-89
2021/11/09 02:30:42;;;;;;;1.38;0.80;;;14.60;96.70;;;;;;5097102;28;20074;-88
2021/11/09 02:33:11;;;;;;;2.08;0.90;;;14.60;96.70;;;;;;5098440;28;20047;-88
2021/11/09 02:35:40;;;;;;;6.15;0.82;;;14.60;96.70;;;;;;5099942;28;20035;-90
2021/11/09 02:38:10;;;;;;;4.38;1.05;;;14.60;96.70;;;;;;5100812;28;20063;-87
2021/11/09 02:40:40;;;;;;;1.25;1.00;;;14.60;96.70;;;;;;5099868;28;20491;-86
2021/11/09 02:43:10;;;;;;;2.45;0.98;;;14.60;96.70;;;;;;5084642;28;20263;-89
2021/11/09 02:48:29;;;;;;;2.80;0.88;;;14.60;96.70;;;;;;5102630;28;20054;-88
2021/11/09 02:51:03;;;;;;;4.13;1.23;;;14.60;96.70;;;;;;5095229;28;20040;-89
2021/11/09 02:53:39;;;;;;;1.13;0.80;;;14.60;96.70;;;;;;5100640;28;20045;-87
2021/11/09 03:01:14;;;;;;;1.40;0.88;;;14.60;96.70;;;;;;5098963;28;20154;-88
2021/11/09 03:03:51;;;;;;;3.72;0.85;;;14.70;96.70;;;;;;5102331;28;20039;-88
2021/11/09 03:06:27;;;;;;;0.95;0.60;;;14.70;96.70;;;;;;5089797;28;20555;-89
2021/11/09 03:11:31;;;;;;;1.77;0.80;;;14.70;96.70;;;;;;5107811;28;20812;-89
2021/11/09 03:13:59;;;;;;;1.85;0.90;;;14.70;96.70;;;;;;5097255;27;20054;-92
2021/11/09 03:16:30;;;;;;;1.98;0.77;;;14.60;96.70;;;;;;5100205;27;20082;-89
2021/11/09 03:46:40;;;;;;;2.70;1.20;;;14.50;96.70;;;;;;5104584;28;20051;-88
2021/11/09 03:49:10;;;;;;;2.05;1.15;;;14.60;96.70;;;;;;5099433;27;20032;-88
2021/11/09 03:51:38;;;;;;;3.20;1.10;;;14.60;96.70;;;;;;5099227;27;20402;-86
2021/11/09 03:54:13;;;;;;;1.88;1.13;;;14.60;96.70;;;;;;5110301;27;20043;-87
2021/11/09 03:56:51;;;;;;;4.53;1.10;;;14.60;96.70;;;;;;5103459;27;20051;-88
2021/11/09 03:59:26;;;;;;;2.25;1.05;;;14.60;96.70;;;;;;5096947;28;20048;-88
2021/11/09 04:04:41;;;;;;;2.85;1.20;;;14.60;96.70;;;;;;5104383;28;20085;-88
2021/11/09 04:09:48;;;;;;;1.90;1.13;;;14.60;96.70;;;;;;5105195;27;20036;-87
2021/11/09 04:12:39;;;;;;;2.53;0.98;;;14.50;96.70;;;;;;5102511;28;20047;-89
2021/11/09 04:26:20;;;;;;;3.22;1.38;;;14.60;96.70;;;;;;5100277;27;20043;-84
2021/11/09 04:34:33;;;;;;;1.77;0.93;;;14.50;96.70;;;;;;5117115;27;20040;-84
2021/11/09 05:01:36;;;;;;;2.25;1.10;;;14.20;96.70;;;;;;5099899;28;20039;-86
2021/11/09 05:09:41;;;;;;;2.38;0.85;;;14.20;96.70;;;;;;5095567;27;20122;-84
2021/11/09 05:12:09;;;;;;;2.25;0.70;;;14.20;96.70;;;;;;5080347;27;20044;-83
2021/11/09 05:14:38;;;;;;;3.55;0.75;;;14.20;96.70;;;;;;5079999;28;20055;-84
2021/11/09 05:17:07;;;;;;;2.05;0.80;;;14.20;96.70;;;;;;5093690;28;20051;-86
2021/11/09 05:19:35;;;;;;;3.35;1.52;;;14.30;96.70;;;;;;5099963;27;20104;-86
2021/11/09 05:22:05;;;;;;;2.55;0.90;;;14.30;96.70;;;;;;5094139;28;20051;-84
2021/11/09 05:24:33;;;;;;;2.65;1.13;;;14.30;96.70;;;;;;5097781;28;20051;-84
2021/11/09 05:27:01;;;;;;;1.92;1.08;;;14.30;96.70;;;;;;5101264;27;20089;-84
2021/11/09 05:29:30;;;;;;;2.75;1.02;;;14.30;96.70;;;;;;5101752;28;20043;-84
2021/11/09 05:31:59;;;;;;;1.38;0.85;;;14.30;96.70;;;;;;5085080;28;20036;-84
2021/11/09 05:34:30;;;;;;;2.72;1.00;;;14.40;96.70;;;;;;5096509;28;20090;-84
2021/11/09 05:37:23;;;;;;;2.50;0.75;;;14.40;96.70;;;;;;5096946;28;20416;-85
2021/11/09 05:39:54;;;;;;;1.40;0.80;;;14.40;96.70;;;;;;5013323;28;20091;-84
2021/11/09 05:42:24;;;;;;;2.60;1.00;;;14.50;96.70;;;;;;4940283;28;20132;-86
2021/11/09 05:44:52;;;;;;;3.22;1.00;;;14.40;96.70;;;;;;4992470;28;20105;-91
2021/11/09 05:47:21;;;;;;;2.85;1.00;;;14.40;96.70;;;;;;5008126;28;20609;-90
2021/11/09 05:49:51;;;;;;;2.30;0.80;;;14.50;96.70;;;;;;5019659;28;20097;-90
2021/11/09 05:52:19;;;;;;;2.25;0.70;;;14.50;96.70;;;;;;5008602;28;20053;-90
2021/11/09 05:54:47;;;;;;;1.38;0.82;;;14.50;96.70;;;;;;5007138;28;20164;-88
2021/11/09 05:57:15;;;;;;;2.65;0.80;;;14.50;96.70;;;;;;5016224;28;20042;-88
2021/11/09 05:59:43;;;;;;;5.43;0.98;;;14.50;96.70;;;;;;4999212;28;20054;-84
2021/11/09 06:02:12;;;;;;;3.17;1.30;;;14.40;96.70;;;;;;5017825;28;20049;-84
2021/11/09 06:04:40;;;;;;;1.77;0.90;;;14.30;96.70;;;;;;5071391;28;20135;-84
2021/11/09 06:07:09;;;;;;;2.60;1.00;;;14.30;96.70;;;;;;5095738;28;20070;-86
2021/11/09 06:09:37;;;;;;;1.92;0.80;;;14.30;96.70;;;;;;5096546;28;20054;-87
2021/11/09 06:12:06;;;;;;;1.98;0.95;;;14.40;96.70;;;;;;5094605;28;20040;-87
2021/11/09 06:14:35;;;;;;;2.90;1.13;;;14.40;96.70;;;;;;5097418;28;20048;-88
2021/11/09 06:17:03;;;;;;;1.88;1.05;;;14.40;96.70;;;;;;5103054;27;20032;-87
2021/11/09 06:19:31;;;;;;;3.30;1.10;;;14.30;96.70;;;;;;5106661;28;20430;-87
2021/11/09 06:22:00;;;;;;;2.25;1.05;;;14.30;96.70;;;;;;5099218;28;20047;-87
2021/11/09 06:24:30;;;;;;;2.10;1.05;;;14.30;96.70;;;;;;5084430;28;20036;-87
2021/11/09 06:26:58;;;;;;;1.75;1.05;;;14.30;96.70;;;;;;5101507;28;20230;-87
2021/11/09 06:29:26;;;;;;;2.22;0.80;;;14.30;96.70;;;;;;5085109;28;20123;-87
2021/11/09 06:31:57;;;;;;;1.23;0.73;;;14.30;96.70;;;;;;5086925;28;20151;-88
2021/11/09 06:34:25;;;;;;;2.63;1.00;;;14.30;96.70;;;;;;5100805;28;20401;-87
2021/11/09 06:36:53;;;;;;;1.90;0.90;;;14.30;96.70;;;;;;5106341;27;20078;-88
2021/11/09 06:39:22;;;;;;;2.97;1.10;;;14.30;96.70;;;;;;5088702;28;20724;-88
2021/11/09 06:41:52;;;;;;;1.63;0.85;;;14.40;96.70;;;;;;5079101;28;20047;-88
2021/11/09 06:44:20;;;;;;;1.40;0.80;;;14.40;96.70;;;;;;5092292;27;20040;-88
2021/11/09 06:46:48;;;;;;;2.28;1.20;;;14.40;96.70;;;;;;5078023;28;20040;-88
2021/11/09 06:49:16;;;;;;;2.30;1.00;;;14.40;96.70;;;;;;5077104;28;20048;-87
2021/11/09 06:51:44;;;;;;;2.35;0.90;;;14.40;96.70;;;;;;5075657;28;20071;-88
2021/11/09 06:54:12;;;;;;;5.07;1.80;;;14.50;96.70;;;;;;5101753;27;20085;-89
2021/11/09 06:56:41;;;;;;;3.05;0.77;;;14.50;96.70;;;;;;5103833;28;20162;-89
2021/11/09 06:59:11;;;;;;;2.90;1.10;;;14.50;96.70;;;;;;5099707;27;20142;-89
2021/11/09 07:01:39;;;;;;;2.03;0.88;;;14.60;96.70;;;;;;5097204;28;20047;-90
2021/11/09 07:04:07;;;;;;;3.17;0.82;;;14.60;96.70;;;;;;5094614;28;20036;-88
2021/11/09 07:06:35;;;;;;;2.38;1.00;;;14.70;96.70;;;;;;5101634;28;20032;-89
2021/11/09 07:09:03;;;;;;;3.83;1.08;;;14.70;96.70;;;;;;5106287;28;20497;-89
2021/11/09 07:11:31;;;;;;;3.42;0.93;;;14.80;96.70;;;;;;5104199;27;20067;-89
2021/11/09 07:13:59;;;;;;;2.03;1.10;;;14.80;96.70;;;;;;5105975;28;20463;-91
2021/11/09 07:16:29;;;;;;;1.67;1.00;;;14.80;96.70;;;;;;5083323;28;20130;-90
2021/11/09 07:19:03;;;;;;;2.10;1.00;;;14.90;96.70;;;;;;5087440;27;20080;-89
2021/11/09 07:21:31;;;;;;;2.53;0.90;;;15.00;96.70;;;;;;5099608;28;20043;-88
2021/11/09 07:24:00;;;;;;;1.10;0.70;;;15.10;96.70;;;;;;5102402;27;20070;-90
2021/11/09 07:26:28;;;;;;;2.95;0.90;;;15.10;96.70;;;;;;5094689;27;20036;-89
2021/11/09 07:28:57;;;;;;;2.20;0.80;;;15.20;96.70;;;;;;5101356;28;20040;-89
2021/11/09 07:31:26;;;;;;;1.92;0.90;;;15.20;96.70;;;;;;5085964;28;20044;-89
2021/11/09 07:33:55;;;;;;;4.00;1.30;;;15.30;96.70;;;;;;5083715;28;20134;-90
2021/11/09 07:36:27;;;;;;;2.63;1.02;;;15.40;96.70;;;;;;5100541;27;20529;-88
2021/11/09 07:38:58;;;;;;;2.35;1.05;;;15.50;96.70;;;;;;5102959;27;20047;-88
2021/11/09 07:41:26;;;;;;;2.45;1.25;;;15.60;96.70;;;;;;5096571;28;20048;-89
2021/11/09 07:43:54;;;;;;;2.08;0.80;;;15.70;96.70;;;;;;5081435;28;20032;-89
2021/11/09 07:46:22;;;;;;;3.80;0.95;;;15.70;96.70;;;;;;5083187;28;20044;-81
2021/11/09 07:48:51;;;;;;;1.52;0.82;;;15.80;96.70;;;;;;5100706;28;20048;-86
2021/11/09 07:51:21;;;;;;;3.53;1.05;;;15.80;96.70;;;;;;5080627;28;20048;-87
2021/11/09 07:53:50;;;;;;;2.17;0.90;;;15.90;96.70;;;;;;5100032;27;20158;-86
2021/11/09 07:56:23;;;;;;;1.92;0.93;;;15.90;96.70;;;;;;5097205;28;20044;-87
2021/11/09 07:59:04;;;;;;;1.98;0.80;;;15.80;96.70;;;;;;5104686;28;20043;-87
2021/11/09 08:01:41;;;;;;;1.23;0.98;;;15.80;96.70;;;;;;5087469;27;20054;-88
2021/11/09 08:09:12;;;;;;;2.63;1.30;;;15.80;96.70;;;;;;5101737;27;20055;-84
2021/11/09 08:11:42;;;;;;;2.65;1.13;;;15.90;96.70;;;;;;5102445;27;20047;-84
2021/11/09 08:14:11;;;;;;;5.00;1.67;;;15.90;96.70;;;;;;5085892;28;20035;-87
2021/11/09 08:16:40;;;;;;;4.70;2.00;;;16.00;96.70;;;;;;5088481;28;20051;-86
2021/11/09 08:19:08;;;;;;;4.38;2.00;;;16.00;96.70;;;;;;5101482;27;20042;-84
2021/11/09 08:21:39;;;;;;;5.70;1.85;;;16.10;96.70;;;;;;5089110;28;20039;-86
2021/11/09 08:24:09;;;;;;;5.07;2.17;;;16.10;96.70;;;;;;5101254;28;20035;-86
2021/11/09 08:26:37;;;;;;;6.40;2.45;;;16.10;96.70;;;;;;5085116;28;20560;-87
2021/11/09 08:29:07;;;;;;;1.92;1.30;;;16.20;96.70;;;;;;5104182;27;20071;-83
2021/11/09 08:31:37;;;;;;;3.83;2.10;;;16.30;96.70;;;;;;5104126;27;20044;-86
2021/11/09 08:34:05;;;;;;;6.47;1.55;;;16.40;96.70;;;;;;5103975;27;20043;-82
2021/11/09 08:36:33;;;;;;;5.22;1.70;;;16.50;96.70;;;;;;5098069;28;20093;-85
2021/11/09 08:39:05;;;;;;;3.75;1.42;;;16.50;96.70;;;;;;5088765;27;20052;-84
2021/11/09 08:42:01;;;;;;;2.05;1.15;;;16.40;96.70;;;;;;5100287;27;20406;-83
2021/11/09 08:44:34;;;;;;;2.35;0.98;;;16.40;96.70;;;;;;5102083;28;20421;-85
2021/11/09 08:47:03;;;;;;;2.83;1.23;;;16.40;96.70;;;;;;5083811;28;20489;-83
2021/11/09 08:49:32;;;;;;;2.25;1.27;;;16.30;96.70;;;;;;5100271;28;20530;-83
2021/11/09 08:52:04;;;;;;;6.53;1.48;;;16.20;96.70;;;;;;5101647;28;20036;-82
2021/11/09 08:54:35;;;;;;;3.97;1.73;;;16.20;96.70;;;;;;5100300;27;20609;-85
2021/11/09 08:57:22;;;;;;;3.90;1.50;;;16.20;96.70;;;;;;5098856;28;20076;-83
2021/11/09 09:05:13;;;;;;;3.33;1.27;;;16.00;96.70;;;;;;5098517;28;20685;-81
2021/11/09 09:07:42;;;;;;;2.22;1.13;;;15.90;96.70;;;;;;5098747;28;20032;-81
2021/11/09 09:10:14;;;;;;;4.38;1.00;;;15.90;96.70;;;;;;5096957;28;20032;-80
2021/11/09 09:12:45;;;;;;;2.90;1.10;;;15.90;96.70;;;;;;5097148;28;20427;-81
2021/11/09 09:15:15;;;;;;;4.50;0.90;;;16.00;96.70;;;;;;5099608;27;20038;-85
2021/11/09 09:17:44;;;;;;;2.38;1.05;;;16.10;96.70;;;;;;5098433;28;20505;-84
2021/11/09 09:20:30;;;;;;;1.98;0.90;;;16.10;96.70;;;;;;5100706;28;20085;-83
2021/11/09 09:23:12;;;;;;;2.80;0.80;;;16.10;96.70;;;;;;5096544;28;20031;-84
2021/11/09 09:53:26;;;;;;;1.05;0.70;;;16.30;96.70;;;;;;5101714;28;20051;-87
2021/11/09 09:56:01;;;;;;;3.35;1.00;;;16.40;96.70;;;;;;5097494;28;20052;-85
2021/11/09 09:58:32;;;;;;;2.80;0.88;;;16.40;96.70;;;;;;5082530;28;20048;-86
2021/11/09 10:01:01;;;;;;;1.70;0.80;;;16.70;96.70;;;;;;5096447;28;20036;-84
2021/11/09 10:03:34;;;;;;;1.67;0.60;;;16.90;96.70;;;;;;5092556;28;20052;-83
2021/11/09 10:06:04;;;;;;;2.65;0.80;;;17.10;96.70;;;;;;5094298;28;20052;-83
2021/11/09 10:08:40;;;;;;;2.00;0.70;;;17.20;96.70;;;;;;5095417;28;20508;-83
2021/11/09 10:11:26;;;;;;;1.43;0.90;;;17.30;96.70;;;;;;5097405;28;20624;-80
2021/11/09 10:13:56;;;;;;;2.03;1.05;;;17.30;96.70;;;;;;5092089;28;20288;-79
2021/11/09 10:16:24;;;;;;;3.40;1.10;;;17.40;96.70;;;;;;5091353;28;20051;-80
2021/11/09 10:18:52;;;;;;;2.30;0.93;;;17.40;96.70;;;;;;5089549;28;20916;-80
2021/11/09 10:21:20;;;;;;;1.92;1.23;;;17.50;96.70;;;;;;5096944;28;20134;-81
2021/11/09 10:23:49;;;;;;;2.42;1.13;;;17.60;96.70;;;;;;5096154;28;20039;-79
2021/11/09 10:26:19;;;;;;;3.30;1.20;;;17.70;96.70;;;;;;5100216;28;20066;-76
2021/11/09 10:28:47;;;;;;;2.53;1.00;;;17.90;96.70;;;;;;5096680;28;20044;-80
2021/11/09 10:31:16;;;;;;;3.25;0.90;;;17.90;96.70;;;;;;5096334;28;20123;-80
2021/11/09 10:33:49;;;;;;;1.58;0.90;;;17.80;96.70;;;;;;5089764;28;20035;-79
2021/11/09 10:36:20;;;;;;;1.70;0.95;;;17.60;96.70;;;;;;5093803;28;20113;-79
2021/11/09 10:38:48;;;;;;;2.00;0.85;;;17.30;96.70;;;;;;5090132;28;20471;-78
2021/11/09 10:41:17;;;;;;;1.70;0.82;;;17.20;96.70;;;;;;5093927;28;20042;-77
2021/11/09 10:43:45;;;;;;;2.17;0.90;;;17.10;96.70;;;;;;5097869;28;20035;-77
2021/11/09 10:46:28;;;;;;;1.58;0.82;;;17.00;96.70;;;;;;5096042;28;20040;-77
2021/11/09 10:48:58;;;;;;;4.82;1.23;;;17.00;96.70;;;;;;5080998;28;20043;-80
2021/11/09 10:51:53;;;;;;;1.08;0.98;;;17.00;96.70;;;;;;5092390;28;20044;-80
2021/11/09 10:54:40;;;;;;;1.77;0.90;;;17.00;96.70;;;;;;5080162;28;20393;-79
2021/11/09 10:57:12;;;;;;;2.60;1.52;;;17.00;96.70;;;;;;5094679;28;20062;-80
2021/11/09 10:59:58;;;;;;;3.33;2.05;;;17.00;96.70;;;;;;5099211;28;20047;-79
2021/11/09 11:05:19;;;;;;;6.85;2.63;;;16.90;96.70;;;;;;5095084;27;20040;-80
2021/11/09 11:07:51;;;;;;;4.97;1.88;;;16.80;96.70;;;;;;5117956;27;20140;-79
2021/11/09 11:10:26;;;;;;;4.32;1.63;;;16.80;96.70;;;;;;5099021;28;20044;-79
2021/11/09 11:13:18;;;;;;;4.68;2.75;;;16.80;96.70;;;;;;5081257;28;20051;-79
2021/11/09 11:16:07;;;;;;;2.55;1.65;;;16.80;96.70;;;;;;5100131;27;20067;-79
2021/11/09 11:18:39;;;;;;;2.10;1.45;;;16.80;96.70;;;;;;5096100;28;20035;-77
2021/11/09 11:21:09;;;;;;;4.78;1.35;;;16.90;96.70;;;;;;5084907;28;20089;-78
2021/11/09 11:23:39;;;;;;;5.75;1.38;;;17.20;96.70;;;;;;5099012;28;21336;-79
2021/11/09 11:26:09;;;;;;;3.72;1.48;;;17.30;96.70;;;;;;5093289;27;20109;-79
2021/11/09 11:28:38;;;;;;;2.58;1.40;;;17.20;96.70;;;;;;5093678;28;20040;-77
2021/11/09 11:31:07;;;;;;;4.18;1.58;;;17.20;96.70;;;;;;5095042;28;20124;-79
2021/11/09 11:33:37;;;;;;;5.30;1.50;;;17.10;96.70;;;;;;5115337;27;20465;-78
2021/11/09 11:36:06;;;;;;;3.00;1.60;;;17.10;96.70;;;;;;5092265;27;20135;-79
2021/11/09 11:38:37;;;;;;;4.50;1.60;;;17.20;96.70;;;;;;5083415;28;20039;-78
2021/11/09 11:41:05;;;;;;;4.28;2.15;;;17.40;96.70;;;;;;5096524;27;20067;-79
2021/11/09 11:43:57;;;;;;;3.25;1.85;;;17.40;96.70;;;;;;5113045;27;20039;-79
2021/11/09 11:46:46;;;;;;;2.50;1.13;;;17.20;96.70;;;;;;5095345;27;20513;-78
2021/11/09 11:49:19;;;;;;;2.53;1.20;;;17.00;96.70;;;;;;5108403;27;20036;-79
2021/11/09 11:52:18;;;;;;;3.03;1.90;;;16.90;96.70;;;;;;5098604;28;20063;-78
2021/11/09 11:54:55;;;;;;;4.40;2.58;;;16.80;96.70;;;;;;5096367;27;20066;-79
2021/11/09 11:57:47;;;;;;;2.88;2.03;;;16.70;96.70;;;;;;5096718;28;20051;-78
2021/11/09 12:00:37;;;;;;;3.63;2.08;;;16.70;96.70;;;;;;5098665;28;20448;-78
2021/11/09 12:03:36;;;;;;;2.85;2.10;;;16.70;96.70;;;;;;5091363;28;20036;-78
2021/11/09 12:06:21;;;;;;;3.13;1.27;;;16.70;96.70;;;;;;5096894;28;20089;-78
2021/11/09 12:08:51;;;;;;;2.72;1.30;;;16.60;96.70;;;;;;5093170;27;20716;-78
2021/11/09 12:11:35;;;;;;;2.55;1.23;;;16.50;96.70;;;;;;5101869;27;20043;-78
2021/11/09 12:14:13;;;;;;;3.05;1.20;;;16.60;96.70;;;;;;5111311;27;20042;-78
2021/11/09 12:16:54;;;;;;;1.58;1.13;;;16.70;96.70;;;;;;5094851;28;20197;-78
2021/11/09 12:19:57;;;;;;;2.88;1.38;;;16.80;96.70;;;;;;5078162;28;20071;-78
2021/11/09 12:22:38;;;;;;;2.03;0.90;;;16.80;96.70;;;;;;5095679;28;20067;-79
2021/11/09 12:25:09;;;;;;;2.40;1.20;;;16.80;96.70;;;;;;5098679;28;20044;-79
2021/11/09 12:28:01;;;;;;;3.20;1.08;;;16.70;96.70;;;;;;5098566;28;20066;-79
2021/11/09 12:30:49;;;;;;;3.30;1.02;;;16.60;96.70;;;;;;5098395;28;20137;-78
2021/11/09 12:33:23;;;;;;;1.35;0.80;;;16.50;96.70;;;;;;5091335;28;20093;-78
2021/11/09 12:36:20;;;;;;;1.63;0.90;;;16.50;96.70;;;;;;5098170;27;20040;-78
2021/11/09 12:38:52;;;;;;;2.45;1.30;;;16.50;96.70;;;;;;5096936;27;20040;-78
2021/11/09 12:41:21;;;;;;;1.95;0.98;;;16.50;96.70;;;;;;5092461;28;20075;-78
2021/11/09 12:43:51;;;;;;;2.30;0.95;;;16.60;96.70;;;;;;5092939;28;20036;-78
2021/11/09 12:49:31;;;;;;;2.88;1.48;;;17.00;96.70;;;;;;5001766;28;20041;-77
2021/11/09 12:52:01;;;;;;;3.22;1.75;;;17.10;96.70;;;;;;4999524;28;20054;-78
2021/11/09 12:54:33;;;;;;;3.78;2.70;;;17.10;96.70;;;;;;5003134;28;20048;-78
2021/11/09 12:57:04;;;;;;;3.22;2.38;;;17.10;96.70;;;;;;4997481;28;20049;-78
2021/11/09 13:02:17;;;;;;;2.22;1.58;;;17.00;96.70;;;;;;4999175;28;20542;-78
2021/11/09 13:04:48;;;;;;;2.60;1.27;;;16.90;96.70;;;;;;5002469;28;20101;-78
2021/11/09 13:10:08;;;;;;;1.50;1.23;;;16.70;96.70;;;;;;5016403;28;20055;-78
2021/11/09 13:12:38;;;;;;;2.03;1.20;;;16.60;96.70;;;;;;4995156;28;20104;-79
2021/11/09 13:15:08;;;;;;;0.93;0.70;;;16.50;96.70;;;;;;5002133;28;20542;-79
2021/11/09 13:17:52;;;;;;;1.30;1.02;;;16.40;96.70;;;;;;4998585;28;20045;-79
2021/11/09 13:22:55;;;;;;;2.22;1.00;;;16.30;96.70;;;;;;5033010;28;20109;-79
2021/11/09 13:25:36;;;;;;;1.75;1.30;;;16.20;96.70;;;;;;5080912;28;20390;-78
2021/11/09 13:28:16;;;;;;;1.88;1.13;;;16.20;96.70;;;;;;5092959;28;20071;-79
2021/11/09 13:30:49;;;;;;;1.48;1.13;;;16.20;96.70;;;;;;5096594;28;20162;-79
2021/11/09 13:33:18;;;;;;;2.17;1.30;;;16.10;96.70;;;;;;5090921;28;20505;-79
2021/11/09 13:35:47;;;;;;;1.88;1.10;;;16.10;96.70;;;;;;5094557;27;20748;-79
2021/11/09 13:38:19;;;;;;;2.40;1.10;;;16.10;96.70;;;;;;5099373;27;20048;-78
2021/11/09 13:40:51;;;;;;;2.30;1.10;;;16.10;96.70;;;;;;5096719;28;20059;-78
2021/11/09 13:43:21;;;;;;;1.17;0.88;;;16.40;96.70;;;;;;5095796;28;20047;-79
2021/11/09 13:45:56;;;;;;;2.83;0.90;;;16.80;96.70;;;;;;5098164;28;20035;-78
2021/11/09 13:48:26;;;;;;;2.45;1.27;;;17.10;96.70;;;;;;5100344;28;20752;-78
2021/11/09 13:50:58;;;;;;;1.10;0.90;;;17.30;96.70;;;;;;5098985;28;20043;-79
2021/11/09 13:53:28;;;;;;;2.40;1.27;;;17.30;96.70;;;;;;5098852;28;20505;-78
2021/11/09 13:55:58;;;;;;;1.38;0.93;;;17.20;96.70;;;;;;5093921;28;20090;-78
2021/11/09 13:58:27;;;;;;;2.60;1.10;;;17.20;96.70;;;;;;5092799;28;20047;-79
2021/11/09 14:01:01;;;;;;;1.73;0.80;;;17.20;96.70;;;;;;5098852;28;20044;-79
2021/11/09 14:06:22;;;;;;;2.58;1.40;;;17.10;96.70;;;;;;5093336;28;20043;-78
2021/11/09 14:16:51;;;;;;;4.38;2.58;;;17.00;96.70;;;;;;5094860;28;20078;-79
2021/11/09 14:19:28;;;;;;;2.35;1.90;;;17.00;96.70;;;;;;5098010;28;20062;-79
2021/11/09 14:21:58;;;;;;;2.45;1.80;;;17.00;96.70;;;;;;5101743;28;20040;-78
2021/11/09 14:24:28;;;;;;;2.55;1.70;;;17.00;96.70;;;;;;5095824;28;20508;-78
2021/11/09 14:27:06;;;;;;;1.80;1.65;;;16.90;96.70;;;;;;5093065;28;20054;-79
2021/11/09 14:29:37;;;;;;;2.20;1.60;;;17.00;96.70;;;;;;5110083;27;20089;-79
2021/11/09 14:32:14;;;;;;;4.45;1.83;;;17.00;96.70;;;;;;5082404;28;20120;-78
2021/11/09 14:34:56;;;;;;;2.97;1.50;;;17.10;96.70;;;;;;5095841;28;20054;-78
2021/11/09 14:37:31;;;;;;;2.35;1.50;;;17.00;96.70;;;;;;5080219;28;20625;-79
2021/11/09 14:40:06;;;;;;;1.02;0.82;;;16.90;96.70;;;;;;5099791;27;20048;-79
2021/11/09 14:45:29;;;;;;;2.67;1.50;;;16.90;96.70;;;;;;5093525;28;20047;-79
2021/11/09 14:48:05;;;;;;;1.08;0.90;;;16.80;96.70;;;;;;5098703;28;20054;-79
2021/11/09 14:50:42;;;;;;;1.20;1.10;;;16.80;96.70;;;;;;5103504;27;20058;-79
2021/11/09 14:53:15;;;;;;;5.32;3.97;;;16.90;96.70;;;;;;5097907;28;20794;-78
2021/11/09 14:55:48;;;;;;;3.40;1.90;;;17.00;96.70;;;;;;5103404;28;20075;-79
2021/11/09 14:58:39;;;;;;;3.03;2.40;;;16.90;96.70;;;;;;5082837;28;20044;-79
2021/11/09 15:01:40;;;;;;;3.42;2.15;;;16.90;96.70;;;;;;5096549;28;20051;-79
2021/11/09 15:07:23;;;;;;;2.13;1.20;;;16.90;96.70;;;;;;5055640;28;20057;-79
2021/11/09 15:31:48;;;;;;;3.50;1.60;;;16.60;96.70;;;;;;5056223;28;20440;-79
2021/11/09 15:39:28;;;;;;;2.63;1.33;;;16.50;96.70;;;;;;5056669;28;20044;-78
2021/11/09 15:41:58;;;;;;;1.60;1.17;;;16.40;96.70;;;;;;5052799;28;20048;-79
2021/11/09 15:44:28;;;;;;;3.47;1.50;;;16.40;96.70;;;;;;5080292;28;20051;-79
2021/11/09 15:46:58;;;;;;;3.35;1.65;;;16.30;96.70;;;;;;5098655;27;20063;-79
2021/11/09 15:49:28;;;;;;;4.57;2.28;;;16.30;96.70;;;;;;5108015;27;20537;-79
2021/11/09 15:51:58;;;;;;;3.38;1.60;;;16.30;96.70;;;;;;5114798;27;20520;-79
2021/11/09 15:54:47;;;;;;;1.58;1.10;;;16.20;96.70;;;;;;5082566;28;20519;-77
2021/11/09 15:57:16;;;;;;;1.52;0.80;;;16.10;96.70;;;;;;5094568;28;20097;-79
2021/11/09 15:59:45;;;;;;;3.08;1.73;;;16.10;96.70;;;;;;5097050;28;20387;-81
2021/11/09 16:02:15;;;;;;;4.53;2.00;;;16.00;96.70;;;;;;5085252;28;20043;-81
2021/11/09 16:04:44;;;;;;;4.32;2.60;;;16.00;96.70;;;;;;5094308;28;20040;-80
2021/11/09 16:07:15;;;;;;;5.10;3.03;;;16.00;96.70;;;;;;5104036;27;20047;-80
2021/11/09 16:09:48;;;;;;;10.18;6.75;;;16.00;96.70;;;;;;5091256;28;20523;-77
2021/11/09 16:12:19;;;;;;;10.38;6.38;;;16.00;96.70;;;;;;5102872;27;20050;-78
2021/11/09 16:14:47;;;;;;;4.80;2.75;;;16.00;96.70;;;;;;5095195;27;20039;-78
2021/11/09 16:17:18;;;;;;;3.83;2.25;;;15.90;96.70;;;;;;5096372;28;20123;-79
2021/11/09 16:19:47;;;;;;;5.05;3.15;;;15.90;96.70;;;;;;5081701;28;20071;-78
2021/11/09 16:22:21;;;;;;;4.30;2.97;;;15.90;96.70;;;;;;5097174;28;20044;-79